createdAt,value
2019-02-16T00:00:08.120Z,5.13
2019-02-16T00:03:11.385Z,6.03
2019-02-16T00:06:04.661Z,8.47
2019-02-16T00:08:49.297Z,6.63
2019-02-16T00:11:34.031Z,5.97
2019-02-16T00:14:18.661Z,5.70
2019-02-16T00:17:03.265Z,5.20
2019-02-16T00:19:47.882Z,5.73
2019-02-16T00:22:41.384Z,6.53
2019-02-16T00:25:26.348Z,5.37
2019-02-16T00:28:20.601Z,5.70
2019-02-16T00:31:14.555Z,6.27
2019-02-16T00:34:08.624Z,4.53
2019-02-16T00:37:02.288Z,5.13
2019-02-16T00:39:47.171Z,4.67
2019-02-16T00:42:32.316Z,6.37
2019-02-16T00:45:28.920Z,7.73
2019-02-16T00:48:13.989Z,5.47
2019-02-16T00:50:58.699Z,5.53
2019-02-16T00:53:43.519Z,5.93
2019-02-16T00:56:27.896Z,6.30
2019-02-16T00:59:12.734Z,7.43
2019-02-16T01:01:57.720Z,4.40
2019-02-16T01:04:42.360Z,4.67
2019-02-16T01:07:26.776Z,7.03
2019-02-16T01:10:11.581Z,4.33
2019-02-16T01:12:55.688Z,5.00
2019-02-16T01:15:49.720Z,4.67
2019-02-16T01:18:34.868Z,5.20
2019-02-16T01:21:28.192Z,6.23
2019-02-16T01:24:12.712Z,4.77
2019-02-16T01:26:57.695Z,4.37
2019-02-16T01:29:42.952Z,5.33
2019-02-16T01:32:27.880Z,4.43
2019-02-16T01:35:21.516Z,5.70
2019-02-16T01:38:06.224Z,4.43
2019-02-16T01:40:50.655Z,5.03
2019-02-16T01:43:35.503Z,3.93
2019-02-16T01:46:20.477Z,4.20
2019-02-16T01:49:04.980Z,5.10
2019-02-16T01:51:49.256Z,5.23
2019-02-16T01:54:42.683Z,7.40
2019-02-16T01:57:27.463Z,5.77
2019-02-16T02:00:12.006Z,5.07
2019-02-16T02:02:56.263Z,4.17
2019-02-16T02:05:49.495Z,4.67
2019-02-16T02:08:34.176Z,6.70
2019-02-16T02:11:18.891Z,4.47
2019-02-16T02:14:03.523Z,5.50
2019-02-16T02:16:49.041Z,5.93
2019-02-16T02:19:33.284Z,4.97
2019-02-16T02:22:17.847Z,6.33
2019-02-16T02:25:10.815Z,5.80
2019-02-16T02:27:55.300Z,4.63
2019-02-16T02:30:39.724Z,4.67
2019-02-16T02:33:32.991Z,5.70
2019-02-16T02:36:17.475Z,5.27
2019-02-16T02:39:01.968Z,5.50
2019-02-16T02:41:56.983Z,4.60
2019-02-16T02:44:41.836Z,5.03
2019-02-16T02:47:26.512Z,4.77
2019-02-16T02:50:10.851Z,4.93
2019-02-16T02:52:56.658Z,5.53
2019-02-16T02:55:50.721Z,4.60
2019-02-16T02:58:44.597Z,5.57
2019-02-16T03:01:29.288Z,5.53
2019-02-16T03:04:13.939Z,6.83
2019-02-16T03:06:58.421Z,5.37
2019-02-16T03:09:52.600Z,5.17
2019-02-16T03:12:37.564Z,6.50
2019-02-16T03:15:22.129Z,4.80
2019-02-16T03:18:06.851Z,6.00
2019-02-16T03:20:51.716Z,4.83
2019-02-16T03:23:36.734Z,7.33
2019-02-16T03:26:21.453Z,7.53
2019-02-16T03:29:05.779Z,5.10
2019-02-16T03:31:59.226Z,5.67
2019-02-16T03:34:44.061Z,4.57
2019-02-16T03:37:28.522Z,4.80
2019-02-16T03:40:12.788Z,7.43
2019-02-16T03:43:07.387Z,6.83
2019-02-16T03:45:51.832Z,7.23
2019-02-16T03:48:36.306Z,5.43
2019-02-16T03:51:30.155Z,6.57
2019-02-16T03:54:23.880Z,5.73
2019-02-16T03:57:08.740Z,5.47
2019-02-16T03:59:53.496Z,6.60
2019-02-16T04:02:38.174Z,5.60
2019-02-16T04:05:23.108Z,8.27
2019-02-16T04:08:08.161Z,5.90
2019-02-16T04:11:01.877Z,6.10
2019-02-16T04:13:46.728Z,7.90
2019-02-16T04:16:31.572Z,6.50
2019-02-16T04:19:17.045Z,6.90
2019-02-16T04:22:10.287Z,6.70
2019-02-16T04:24:55.124Z,6.23
2019-02-16T04:27:39.548Z,6.47
2019-02-16T04:30:24.772Z,6.03
2019-02-16T04:33:09.075Z,6.60
2019-02-16T04:35:54.001Z,7.20
2019-02-16T04:38:38.768Z,6.40
2019-02-16T04:41:23.398Z,6.87
2019-02-16T04:44:08.092Z,6.70
2019-02-16T04:46:52.867Z,6.30
2019-02-16T04:49:37.390Z,7.00
2019-02-16T04:52:34.809Z,7.07
2019-02-16T04:55:17.398Z,5.73
2019-02-16T04:58:01.895Z,7.80
2019-02-16T05:00:46.287Z,5.70
2019-02-16T05:03:30.768Z,6.73
2019-02-16T05:06:24.069Z,5.60
2019-02-16T05:09:08.710Z,6.43
2019-02-16T05:11:53.367Z,4.67
2019-02-16T05:14:38.005Z,6.23
2019-02-16T05:17:23.341Z,6.27
2019-02-16T05:20:07.978Z,6.23
2019-02-16T05:22:52.976Z,6.57
2019-02-16T05:25:37.728Z,6.53
2019-02-16T05:28:21.972Z,5.83
2019-02-16T05:31:06.391Z,7.77
2019-02-16T05:33:59.959Z,4.43
2019-02-16T05:36:45.077Z,8.67
2019-02-16T05:39:39.029Z,5.10
2019-02-16T05:42:24.985Z,5.10
2019-02-16T05:45:09.699Z,4.60
2019-02-16T05:47:54.251Z,3.90
2019-02-16T05:50:38.903Z,5.87
2019-02-16T05:53:22.155Z,5.17
2019-02-16T05:56:14.206Z,5.93
2019-02-16T05:59:08.175Z,7.93
2019-02-16T06:02:29.363Z,9.87
2019-02-16T06:05:14.538Z,6.87
2019-02-16T06:07:59.521Z,6.43
2019-02-16T06:10:44.401Z,7.50
2019-02-16T06:13:28.792Z,9.00
2019-02-16T06:16:13.800Z,5.60
2019-02-16T06:18:58.664Z,6.17
2019-02-16T06:21:43.002Z,6.50
2019-02-16T06:24:27.960Z,4.10
2019-02-16T06:27:12.376Z,4.73
2019-02-16T06:30:05.611Z,6.37
2019-02-16T06:32:50.146Z,6.73
2019-02-16T06:39:10.995Z,8.30
2019-02-16T06:41:55.793Z,6.77
2019-02-16T06:44:40.289Z,9.93
2019-02-16T06:47:25.037Z,8.50
2019-02-16T06:50:09.938Z,9.47
2019-02-16T06:52:54.780Z,10.90
2019-02-16T06:59:29.739Z,14.63
2019-02-16T07:02:23.876Z,11.07
2019-02-16T07:05:08.607Z,8.90
2019-02-16T07:08:03.544Z,7.77
2019-02-16T07:10:48.360Z,10.10
2019-02-16T07:13:32.651Z,7.17
2019-02-16T07:16:51.379Z,6.73
2019-02-16T07:19:39.271Z,6.70
2019-02-16T07:22:24.037Z,7.97
2019-02-16T07:25:08.942Z,9.17
2019-02-16T07:27:53.876Z,8.30
2019-02-16T07:30:37.992Z,12.67
2019-02-16T07:33:31.231Z,12.47
2019-02-16T07:36:15.992Z,10.83
2019-02-16T07:39:00.405Z,10.23
2019-02-16T07:41:45.059Z,8.07
2019-02-16T07:48:31.847Z,8.60
2019-02-16T07:51:30.535Z,8.40
2019-02-16T07:54:53.426Z,10.87
2019-02-16T07:58:13.663Z,11.43
2019-02-16T08:01:12.601Z,9.83
2019-02-16T08:04:23.731Z,10.07
2019-02-16T08:07:47.519Z,13.80
2019-02-16T08:10:51.600Z,11.43
2019-02-16T08:13:55.235Z,9.93
2019-02-16T08:17:02.637Z,11.13
2019-02-16T08:20:02.126Z,13.03
2019-02-16T08:23:24.849Z,13.60
2019-02-16T08:26:17.560Z,10.90
2019-02-16T08:29:23.572Z,11.00
2019-02-16T08:32:24.369Z,15.77
2019-02-16T08:35:22.728Z,16.33
2019-02-16T08:38:29.468Z,10.43
2019-02-16T08:41:50.646Z,13.27
2019-02-16T08:45:01.285Z,12.33
2019-02-16T08:48:05.792Z,12.40
2019-02-16T08:51:06.985Z,12.40
2019-02-16T08:54:27.491Z,11.87
2019-02-16T08:57:37.532Z,13.03
2019-02-16T09:00:35.378Z,13.53
2019-02-16T09:03:38.471Z,14.87
2019-02-16T09:06:41.922Z,13.93
2019-02-16T09:09:44.766Z,11.63
2019-02-16T09:12:51.403Z,15.00
2019-02-16T09:15:57.907Z,16.70
2019-02-16T09:19:22.577Z,14.43
2019-02-16T09:22:13.522Z,16.90
2019-02-16T09:25:54.951Z,16.20
2019-02-16T09:28:53.411Z,16.40
2019-02-16T09:32:10.208Z,15.13
2019-02-16T09:35:34.221Z,14.47
2019-02-16T09:38:37.935Z,17.97
2019-02-16T09:42:00.765Z,16.67
2019-02-16T09:44:52.985Z,16.50
2019-02-16T09:48:02.733Z,17.60
2019-02-16T09:51:06.751Z,13.57
2019-02-16T09:54:11.000Z,14.63
2019-02-16T09:57:39.726Z,11.23
2019-02-16T10:00:43.922Z,13.87
2019-02-16T10:04:02.317Z,14.73
2019-02-16T10:07:38.050Z,20.70
2019-02-16T10:14:38.537Z,15.63
2019-02-16T10:17:47.397Z,16.43
2019-02-16T10:28:15.423Z,22.33
2019-02-16T10:31:14.620Z,14.13
2019-02-16T10:34:52.760Z,15.13
2019-02-16T10:38:07.380Z,14.50
2019-02-16T10:41:33.686Z,12.30
2019-02-16T10:44:55.530Z,13.37
2019-02-16T10:48:19.307Z,15.70
2019-02-16T10:58:25.417Z,12.93
2019-02-16T11:05:11.231Z,15.03
2019-02-16T11:08:15.237Z,13.23
2019-02-16T11:15:09.265Z,14.37
2019-02-16T11:18:37.087Z,12.77
2019-02-16T11:21:46.944Z,13.53
2019-02-16T11:25:07.689Z,14.30
2019-02-16T11:28:11.745Z,14.37
2019-02-16T11:31:15.902Z,14.03
2019-02-16T11:34:19.942Z,16.20
2019-02-16T11:37:13.334Z,13.97
2019-02-16T11:40:23.543Z,15.50
2019-02-16T11:47:15.604Z,15.67
2019-02-16T11:50:38.676Z,13.13
2019-02-16T11:53:45.880Z,13.63
2019-02-16T11:56:55.922Z,15.23
2019-02-16T12:03:24.235Z,14.50
2019-02-16T12:06:28.380Z,13.40
2019-02-16T12:16:41.136Z,16.37
2019-02-16T12:20:09.855Z,12.43
2019-02-16T12:23:14.095Z,15.43
2019-02-16T12:26:17.825Z,18.00
2019-02-16T12:33:26.949Z,13.17
2019-02-16T12:40:10.607Z,10.77
2019-02-16T12:43:14.530Z,12.33
2019-02-16T12:46:18.722Z,10.93
2019-02-16T12:49:22.626Z,11.83
2019-02-16T12:55:40.387Z,13.57
2019-02-16T12:58:44.247Z,15.10
2019-02-16T13:01:44.070Z,13.33
2019-02-16T13:05:05.509Z,12.87
2019-02-16T13:11:53.217Z,11.90
2019-02-16T13:14:58.061Z,11.53
2019-02-16T13:18:21.944Z,13.63
2019-02-16T13:21:54.325Z,13.17
2019-02-16T13:27:57.457Z,14.07
2019-02-16T13:37:48.193Z,12.40
2019-02-16T13:41:15.394Z,11.87
2019-02-16T13:47:44.904Z,9.80
2019-02-16T13:54:24.564Z,10.90
2019-02-16T13:57:29.074Z,11.13
2019-02-16T14:00:33.019Z,9.33
2019-02-16T14:03:37.303Z,9.10
2019-02-16T14:06:59.275Z,14.33
2019-02-16T14:10:03.569Z,10.20
2019-02-16T14:13:07.794Z,9.30
2019-02-16T14:19:18.251Z,11.03
2019-02-16T14:22:03.113Z,10.00
2019-02-16T14:24:54.459Z,10.17
2019-02-16T14:27:51.913Z,11.03
2019-02-16T14:30:37.293Z,11.20
2019-02-16T14:33:22.066Z,11.57
2019-02-16T14:36:07.182Z,12.60
2019-02-16T14:39:19.262Z,15.87
2019-02-16T14:42:18.200Z,12.93
2019-02-16T14:45:12.032Z,14.87
2019-02-16T14:47:56.960Z,14.40
2019-02-16T14:50:42.283Z,12.30
2019-02-16T14:53:36.667Z,14.80
2019-02-16T14:56:22.498Z,12.17
2019-02-16T14:59:07.703Z,14.77
2019-02-16T15:02:02.561Z,13.07
2019-02-16T15:04:47.188Z,14.70
2019-02-16T15:07:32.094Z,14.47
2019-02-16T15:10:17.356Z,15.40
2019-02-16T15:13:02.911Z,11.60
2019-02-16T15:15:48.034Z,12.07
2019-02-16T15:18:34.538Z,11.60
2019-02-16T15:21:19.558Z,12.77
2019-02-16T15:24:04.772Z,12.83
2019-02-16T15:26:59.506Z,8.10
2019-02-16T15:29:53.699Z,9.17
2019-02-16T15:32:48.128Z,11.70
2019-02-16T15:35:34.438Z,11.17
2019-02-16T15:38:19.221Z,8.90
2019-02-16T15:41:13.706Z,13.70
2019-02-16T15:44:07.952Z,11.97
2019-02-16T15:47:02.854Z,9.60
2019-02-16T15:49:57.082Z,10.83
2019-02-16T15:52:50.896Z,11.67
2019-02-16T15:55:46.817Z,20.10
2019-02-16T15:58:31.765Z,16.33
2019-02-16T16:01:16.796Z,18.73
2019-02-16T16:04:01.547Z,14.77
2019-02-16T16:06:46.511Z,18.97
2019-02-16T16:13:24.914Z,26.10
2019-02-16T16:20:06.725Z,19.83
2019-02-16T16:26:09.317Z,15.67
2019-02-16T16:33:08.099Z,17.07
2019-02-16T16:39:35.558Z,17.30
2019-02-16T16:42:40.643Z,20.33
2019-02-16T16:45:47.209Z,18.93
2019-02-16T16:49:08.272Z,15.77
2019-02-16T16:52:34.967Z,14.27
2019-02-16T16:55:39.309Z,12.37
2019-02-16T16:58:48.912Z,11.53
2019-02-16T17:02:10.563Z,12.33
2019-02-16T17:05:32.968Z,10.90
2019-02-16T17:09:08.675Z,14.50
2019-02-16T17:12:36.826Z,12.77
2019-02-16T17:15:59.130Z,13.90
2019-02-16T17:19:34.055Z,9.80
2019-02-16T17:23:02.725Z,13.07
2019-02-16T17:29:35.028Z,9.83
2019-02-16T17:32:38.527Z,11.20
2019-02-16T17:35:42.036Z,11.40
2019-02-16T17:38:50.316Z,8.63
2019-02-16T17:42:07.784Z,11.60
2019-02-16T17:48:58.964Z,11.23
2019-02-16T17:52:02.583Z,14.03
2019-02-16T17:55:06.540Z,14.90
2019-02-16T17:58:11.254Z,13.33
2019-02-16T18:04:46.100Z,11.57
2019-02-16T18:08:09.313Z,10.07
2019-02-16T18:11:12.516Z,13.63
2019-02-16T18:14:38.620Z,9.90
2019-02-16T18:17:49.364Z,12.17
2019-02-16T18:20:52.995Z,14.33
2019-02-16T18:23:48.082Z,11.93
2019-02-16T18:26:43.605Z,11.47
2019-02-16T18:29:38.409Z,12.73
2019-02-16T18:33:00.351Z,10.43
2019-02-16T18:36:27.231Z,10.60
2019-02-16T18:39:30.890Z,11.33
2019-02-16T18:42:34.970Z,10.97
2019-02-16T18:45:41.820Z,11.47
2019-02-16T18:48:44.984Z,10.53
2019-02-16T18:52:08.055Z,14.77
2019-02-16T18:58:45.039Z,12.23
2019-02-16T19:01:40.647Z,13.30
2019-02-16T19:04:35.397Z,10.87
2019-02-16T19:07:38.684Z,12.30
2019-02-16T19:10:41.025Z,10.10
2019-02-16T19:13:33.355Z,9.77
2019-02-16T19:16:41.861Z,10.43
2019-02-16T19:20:08.505Z,12.50
2019-02-16T19:23:35.075Z,10.57
2019-02-16T19:26:38.744Z,11.23
2019-02-16T19:30:02.396Z,11.17
2019-02-16T19:33:07.123Z,9.30
2019-02-16T19:36:11.000Z,10.00
2019-02-16T19:39:14.991Z,11.97
2019-02-16T19:42:09.509Z,13.33
2019-02-16T19:45:12.644Z,12.00
2019-02-16T19:48:08.495Z,12.50
2019-02-16T19:54:57.943Z,17.63
2019-02-16T19:57:53.640Z,28.63
2019-02-16T20:00:54.090Z,19.10
2019-02-16T20:03:57.979Z,24.27
2019-02-16T20:07:18.207Z,18.70
2019-02-16T20:10:12.845Z,16.97
2019-02-16T20:13:34.052Z,13.63
2019-02-16T20:16:43.452Z,14.60
2019-02-16T20:20:04.482Z,15.27
2019-02-16T20:23:28.192Z,20.50
2019-02-16T20:26:31.356Z,23.00
2019-02-16T20:29:21.647Z,21.73
2019-02-16T20:32:15.769Z,21.40
2019-02-16T20:35:12.208Z,13.97
2019-02-16T20:38:15.987Z,15.70
2019-02-16T20:41:14.015Z,16.03
2019-02-16T20:44:25.364Z,13.77
2019-02-16T20:50:58.402Z,14.30
2019-02-16T20:54:20.768Z,15.13
2019-02-16T20:57:47.320Z,14.77
2019-02-16T21:00:32.571Z,15.60
2019-02-16T21:03:29.909Z,15.70
2019-02-16T21:06:36.255Z,16.70
2019-02-16T21:09:34.857Z,12.33
2019-02-16T21:12:38.472Z,10.63
2019-02-16T21:15:45.085Z,10.97
2019-02-16T21:18:38.204Z,11.80
2019-02-16T21:21:56.235Z,12.63
2019-02-16T21:24:56.061Z,12.00
2019-02-16T21:27:57.808Z,10.53
2019-02-16T21:31:03.472Z,11.10
2019-02-16T21:33:52.722Z,11.40
2019-02-16T21:36:56.022Z,11.23
2019-02-16T21:40:00.401Z,11.37
2019-02-16T21:43:10.000Z,12.83
2019-02-16T21:46:13.992Z,10.93
2019-02-16T21:49:18.209Z,9.77
2019-02-16T21:52:45.007Z,10.63
2019-02-16T21:55:44.269Z,8.83
2019-02-16T22:02:41.931Z,9.43
2019-02-16T22:05:38.927Z,10.90
2019-02-16T22:09:05.256Z,12.73
2019-02-16T22:12:27.992Z,10.47
2019-02-16T22:15:29.572Z,16.10
2019-02-16T22:18:14.340Z,13.00
2019-02-16T22:20:58.825Z,11.33
2019-02-16T22:23:42.940Z,12.30
2019-02-16T22:26:30.141Z,12.37
2019-02-16T22:29:14.996Z,11.23
2019-02-16T22:32:00.343Z,13.53
2019-02-16T22:34:53.672Z,12.90
2019-02-16T22:37:38.609Z,13.17
2019-02-16T22:40:23.347Z,19.30
2019-02-16T22:43:07.932Z,16.90
2019-02-16T22:45:53.181Z,14.33
2019-02-16T22:48:37.424Z,12.27
2019-02-16T22:51:22.332Z,13.67
2019-02-16T22:54:06.672Z,14.07
2019-02-16T22:56:51.460Z,14.70
2019-02-16T22:59:36.253Z,16.43
2019-02-16T23:02:20.716Z,16.57
2019-02-16T23:05:14.327Z,15.00
2019-02-16T23:07:59.240Z,13.37
2019-02-16T23:10:43.476Z,17.17
2019-02-16T23:13:28.098Z,17.90
2019-02-16T23:16:13.168Z,17.03
2019-02-16T23:18:57.804Z,16.03
2019-02-16T23:21:42.984Z,25.13
2019-02-16T23:24:27.525Z,20.87
2019-02-16T23:27:12.168Z,18.93
2019-02-16T23:29:56.613Z,23.07
2019-02-16T23:32:49.899Z,23.30
2019-02-16T23:35:34.435Z,18.03
2019-02-16T23:38:29.335Z,21.07
2019-02-16T23:41:22.867Z,25.30
2019-02-16T23:44:07.455Z,35.80
2019-02-16T23:46:51.988Z,33.03
2019-02-16T23:49:36.319Z,30.43
2019-02-16T23:52:29.637Z,23.20
2019-02-16T23:55:14.305Z,23.07
2019-02-16T23:57:58.751Z,20.00
